Kenai Municipal Airport
PAEN : now visible

Airfield :











YOU CAN JOIN US ON...

 
LOGIN :

Register | Disclaimer

   EN    FR    IT 

 









Legend :    VFR   Marginal VFR   IFR   Intensive IFR   Very Intensive IFR
Visi :
Ceiling :
>= 8 km
>= 3000ft
5 to 8 km
1000 to 3000 ft
1500m to 5 km
500 to 1000 ft
800 to 1500m
200 to 500 ft
< 800m
< 200 ft
Symbols :   Thunderstorms  Fog  Heavy snow  Heavy precipitations  Wind > 20 kt






- Airport Elevation : 99 ft
- IATA code : ENA


PAEN - Kenai Municipal

CURRENT METAR :
  • 091353Z AUTO 00000KT 10SM CLR M12/M16 A3025 RMK AO2 SLP246 T11221156 TSNO

EXPIRED METARs :
  • 091253Z AUTO 00000KT 10SM CLR M10/M14 A3021 RMK AO2 SLP235 T11001144 TSNO
  • 091153Z AUTO 29004KT 10SM CLR M07/M13 A3019 RMK AO2 SLP226 T10671128 11011 21100 51030 TSNO

TAF PAEN
Valid from the 09 at 12:00 until the 10 at 12:00 UTC


091123Z 0912/1012 VRB06KT P6SM SKC
FM100000 30008KT P6SM SKC



MET'MAP, your aeronautical weather chart ! - Copyright ORBIFLY December 2007 - Disclaimer

ORBIFLY MET'MAP TEAM :

Programming & Development : Alexandra Zaïnal
Concept & original design : Baudouin d'Aumeries
Assistance for programming : Marc-Olivier Méhu
Technical & hardware support : Manuel Goepfert

Contact : metmap@orbifly.com




SOURCES & CREDITS :

   NOAA       Earth
Advisory